メインページ
METAR-TAF:

METAR-TAF

空港 :

ジュノー国際空港

ジュノー, アラスカ州, アメリカ合衆国

緯度: 58-21-17N, 経度: 134-34-34W, 海抜: 6m

現時点の気象観測

当レポートは24分前の10:53(UTC)に作成
東/北東の風 8kt
気温 6°C
湿度 93%
気圧 1006 hPa
視程: 16.1km
高度6000ftの曇り

METAR: PAJN 141053Z 07008KT 10SM OVC060 06/05 A2970 RMK AO2 SLP058 T00610050

時間: 02:17 (11:17 UTC)

予報

当レポートは5時間49分前の05:28(UTC)に作成
予報は14日の 06時(UTC)から 15日の 06時(UTC)まで有効
東/北東の風 8kt
視程: 9.7km
高度700ftの雲はほとんどない
高度3500ftの千切れ雲あり
高度5000ftの曇り
弱いにわか雨
14日の 06時(UTC)から 14日の 08時(UTC)まで一時的に
東/南東の風 15kt、最大20ktの突風を伴う
視程: 8.0km
高度500ftの雲はほとんどない
高度2500ftの千切れ雲あり
高度4000ftの曇り
弱いにわか雨, 靄
14日の 0900時(UTC)から
東/南東の風 14kt
視程: 6.4km
高度1500ftの曇り
弱いにわか雨, 靄
14日の 1200時(UTC)から
の風 7kt
視程: 8.0km
高度1500ftの雲は散在している
高度3000ftの千切れ雲あり
高度5000ftの曇り
弱いにわか雨, 靄
14日の 1700時(UTC)から
東/南東の風 6kt
視程: 10km
高度2500ftの雲は散在している
高度4000ftの千切れ雲あり
高度6000ftの曇り
弱いにわか雨

TAF: PAJN 140528Z 1406/1506 07008KT 6SM -SHRA FEW007 BKN035 OVC050 WS020/12040KT TEMPO 1406/1408 12015G20KT 5SM -SHRA BR FEW005 BKN025 OVC040 FM140900 11014KT 4SM -SHRA BR OVC015 FM141200 10007KT 5SM -SHRA BR SCT015 BKN030 OVC050 FM141700 11006KT P6SM -SHRA SCT025 BKN040 OVC060

4,000以上の空港の気象観測と天気予報(METAR報とTAF報)

利用可能な観測所は地図上に黄色い丸と赤い丸で示す。

丸の上にカーソルを重ねると観測所名を参照できる。

次にクリックすると気象観測と天気予報を参照できる。

マップの切り替え:黒色「×」印の緑ボタンをクリックして拡大、「-」印の緑ボタンをクリックして縮小、緑色の三角印をクリックして隣りの地図に切り替え


METAR-TAF: